Time;durP1;ratioP1;P1;durP2;ratioP2;P2;SDS_P1;SDS_P2;PMS_P1;PMS_P2;Temp;Humidity;BMP_temperature;BMP_pressure;BME280_temperature;BME280_humidity;BME280_pressure;Samples;Min_cycle;Max_cycle;Signal;HPM_P1;HPM_P2
2022/08/12 00:43:37;;;;;;;0.82;0.60;;;23.40;51.10;;;;;;6246748;28;20025;-68
2022/08/12 00:46:46;;;;;;;0.68;0.50;;;23.40;51.10;;;;;;6224568;28;20481;-68
2022/08/12 00:49:48;;;;;;;0.80;0.60;;;23.40;51.10;;;;;;6227612;28;20033;-68
2022/08/12 00:52:51;;;;;;;0.90;0.70;;;23.40;51.10;;;;;;6245282;28;20033;-68
2022/08/12 00:55:55;;;;;;;0.57;0.57;;;23.40;51.10;;;;;;6231475;28;20030;-68
2022/08/12 00:58:59;;;;;;;0.50;0.50;;;23.40;51.10;;;;;;6220492;28;20026;-68
2022/08/12 01:02:03;;;;;;;0.85;0.50;;;23.40;51.20;;;;;;6226194;28;20045;-69
2022/08/12 01:11:50;;;;;;;0.52;0.50;;;23.40;51.20;;;;;;6225057;28;20038;-68
2022/08/12 01:14:53;;;;;;;0.45;0.45;;;23.40;51.20;;;;;;6223407;28;20508;-68
2022/08/12 01:17:54;;;;;;;0.57;0.50;;;23.40;51.20;;;;;;6244805;28;20032;-67
2022/08/12 01:21:26;;;;;;;0.50;0.50;;;23.40;51.20;;;;;;6234732;28;20021;-67
2022/08/12 01:24:48;;;;;;;0.75;0.57;;;23.40;51.20;;;;;;6221264;28;20509;-68
2022/08/12 01:27:51;;;;;;;0.60;0.50;;;23.40;51.20;;;;;;6197188;28;20060;-68
2022/08/12 01:30:53;;;;;;;0.70;0.70;;;23.40;51.30;;;;;;6214063;28;20040;-68
2022/08/12 01:34:02;;;;;;;0.65;0.60;;;23.40;51.20;;;;;;6221396;28;20089;-68
2022/08/12 01:37:06;;;;;;;0.70;0.60;;;23.40;51.30;;;;;;6221064;28;20026;-68
2022/08/12 01:40:09;;;;;;;0.68;0.60;;;23.40;51.30;;;;;;6223115;28;20500;-68
2022/08/12 01:43:15;;;;;;;0.60;0.60;;;23.40;51.30;;;;;;6246119;28;20026;-67
2022/08/12 01:46:36;;;;;;;0.45;0.45;;;23.40;51.30;;;;;;6233961;28;20104;-68
2022/08/12 01:50:10;;;;;;;0.85;0.60;;;23.40;51.30;;;;;;6219906;28;20022;-68
2022/08/12 01:53:14;;;;;;;0.65;0.52;;;23.40;51.30;;;;;;6195197;28;20033;-68
2022/08/12 01:56:17;;;;;;;0.77;0.60;;;23.40;51.40;;;;;;6213646;28;20029;-68
2022/08/12 01:59:48;;;;;;;0.88;0.70;;;23.40;51.30;;;;;;6244349;28;20053;-68
2022/08/12 02:03:07;;;;;;;0.88;0.68;;;23.40;51.40;;;;;;6243354;28;20225;-68
2022/08/12 02:13:40;;;;;;;0.85;0.60;;;23.40;51.40;;;;;;6243063;28;20042;-68
2022/08/12 02:16:41;;;;;;;0.40;0.40;;;23.40;51.40;;;;;;6233388;28;20022;-68
2022/08/12 02:20:04;;;;;;;0.60;0.50;;;23.40;51.40;;;;;;6219490;28;20084;-68
2022/08/12 02:23:09;;;;;;;0.55;0.55;;;23.40;51.40;;;;;;6240122;28;20048;-67
2022/08/12 02:26:14;;;;;;;0.70;0.60;;;23.40;51.40;;;;;;6239256;28;20116;-69
2022/08/12 02:29:17;;;;;;;0.60;0.60;;;23.40;51.40;;;;;;6220344;28;20040;-68
2022/08/12 02:32:19;;;;;;;0.50;0.50;;;23.40;51.40;;;;;;6219766;28;20037;-68
2022/08/12 02:35:22;;;;;;;0.70;0.70;;;23.40;51.40;;;;;;6220100;28;20037;-67
2022/08/12 02:38:26;;;;;;;0.70;0.63;;;23.40;51.40;;;;;;6219670;28;20053;-68
2022/08/12 02:41:31;;;;;;;0.60;0.60;;;23.40;51.50;;;;;;6224199;28;20021;-68
2022/08/12 02:44:39;;;;;;;0.60;0.57;;;23.40;51.40;;;;;;6242975;28;20060;-68
2022/08/12 02:47:41;;;;;;;0.60;0.50;;;23.40;51.40;;;;;;6229352;28;20037;-68
2022/08/12 02:50:47;;;;;;;0.60;0.60;;;23.40;51.40;;;;;;6219690;28;20034;-68
2022/08/12 02:53:50;;;;;;;0.43;0.43;;;23.40;51.50;;;;;;6241521;28;20035;-69
2022/08/12 02:56:52;;;;;;;0.60;0.60;;;23.40;51.50;;;;;;6237889;28;20812;-68
2022/08/12 02:59:53;;;;;;;0.57;0.50;;;23.40;51.50;;;;;;6218628;28;20085;-68
2022/08/12 03:02:57;;;;;;;0.82;0.70;;;23.40;51.50;;;;;;6219535;28;20123;-68
2022/08/12 03:06:02;;;;;;;0.60;0.60;;;23.40;51.50;;;;;;6242970;28;20040;-68
2022/08/12 03:09:03;;;;;;;1.25;0.50;;;23.40;51.50;;;;;;6222322;28;20025;-68
2022/08/12 03:12:08;;;;;;;1.02;0.82;;;23.40;51.50;;;;;;6224430;28;20044;-68
2022/08/12 03:15:14;;;;;;;0.82;0.68;;;23.40;51.50;;;;;;6243939;28;20723;-68
2022/08/12 03:18:27;;;;;;;0.70;0.60;;;23.40;51.50;;;;;;6228792;28;20113;-68
2022/08/12 03:21:28;;;;;;;0.75;0.65;;;23.40;51.60;;;;;;6219444;28;20106;-68
2022/08/12 03:24:30;;;;;;;0.57;0.50;;;23.40;51.50;;;;;;6241887;28;20082;-68
2022/08/12 03:27:31;;;;;;;0.68;0.68;;;23.40;51.50;;;;;;6223828;28;20021;-68
2022/08/12 03:30:32;;;;;;;0.77;0.65;;;23.40;51.60;;;;;;6224646;28;20026;-68
2022/08/12 03:33:36;;;;;;;0.63;0.63;;;23.40;51.60;;;;;;6222700;28;20030;-68
2022/08/12 03:36:38;;;;;;;1.20;0.70;;;23.40;51.60;;;;;;6224082;28;20538;-68
2022/08/12 04:03:00;;;;;;;0.85;0.70;;;23.90;47.50;;;;;;6213823;28;20491;-68
2022/08/12 04:06:01;;;;;;;0.52;0.52;;;24.00;47.50;;;;;;6247322;28;20026;-68
2022/08/12 04:09:04;;;;;;;1.35;0.90;;;24.00;47.20;;;;;;6234209;28;20018;-68
2022/08/12 04:15:27;;;;;;;0.65;0.60;;;24.10;47.00;;;;;;6246619;28;20033;-67
2022/08/12 04:18:29;;;;;;;0.88;0.70;;;24.10;46.90;;;;;;6238353;28;20121;-68
2022/08/12 04:21:31;;;;;;;0.60;0.60;;;24.10;46.80;;;;;;6221907;28;20040;-68
2022/08/12 04:24:34;;;;;;;1.45;0.70;;;24.10;46.70;;;;;;6237588;28;20495;-68
2022/08/12 04:27:35;;;;;;;0.90;0.80;;;24.10;46.60;;;;;;6246029;28;20301;-67
2022/08/12 04:30:39;;;;;;;0.65;0.65;;;24.10;46.60;;;;;;6223375;28;20523;-68
2022/08/12 04:33:41;;;;;;;0.88;0.80;;;24.10;46.50;;;;;;6222164;28;20045;-67
2022/08/12 04:36:42;;;;;;;0.70;0.70;;;24.20;46.50;;;;;;6223140;28;20030;-68
2022/08/12 04:39:44;;;;;;;1.13;0.50;;;24.20;46.50;;;;;;6237763;28;20083;-68
2022/08/12 04:42:45;;;;;;;0.68;0.52;;;24.20;46.50;;;;;;6247355;28;20025;-68
2022/08/12 04:45:48;;;;;;;0.70;0.70;;;24.20;46.40;;;;;;6223791;28;20104;-68
2022/08/12 04:48:49;;;;;;;0.93;0.60;;;24.20;46.30;;;;;;6228713;28;20055;-68
2022/08/12 04:51:50;;;;;;;0.73;0.73;;;24.20;46.20;;;;;;6247228;28;20443;-68
2022/08/12 04:54:51;;;;;;;0.70;0.50;;;24.20;46.20;;;;;;6232262;28;20022;-67
2022/08/12 04:57:52;;;;;;;0.70;0.70;;;24.20;46.10;;;;;;6222124;28;20022;-68
2022/08/12 05:00:53;;;;;;;0.70;0.60;;;24.20;46.00;;;;;;6232490;28;20034;-68
2022/08/12 05:03:56;;;;;;;0.98;0.75;;;24.20;45.90;;;;;;6207250;28;20100;-68
2022/08/12 05:06:56;;;;;;;0.63;0.57;;;24.20;45.90;;;;;;6246593;28;20040;-68
2022/08/12 05:09:57;;;;;;;1.90;0.80;;;24.20;45.80;;;;;;6232895;28;20057;-68
2022/08/12 05:13:01;;;;;;;0.70;0.70;;;24.20;45.90;;;;;;6221977;28;20049;-69
2022/08/12 05:16:03;;;;;;;0.65;0.60;;;24.20;45.90;;;;;;6243248;28;20025;-68
2022/08/12 05:19:04;;;;;;;0.40;0.40;;;24.20;45.80;;;;;;6240941;28;20572;-68
2022/08/12 05:22:04;;;;;;;0.50;0.50;;;24.20;45.80;;;;;;6220879;28;20241;-67
2022/08/12 05:25:05;;;;;;;0.90;0.80;;;24.20;45.80;;;;;;6222827;28;20509;-68
2022/08/12 05:28:06;;;;;;;0.50;0.50;;;24.20;45.70;;;;;;6220233;28;20034;-67
2022/08/12 05:31:07;;;;;;;1.75;0.50;;;24.20;45.60;;;;;;6219766;28;20045;-68
2022/08/12 05:34:10;;;;;;;0.68;0.47;;;24.20;45.70;;;;;;6220704;28;20018;-68
2022/08/12 05:37:10;;;;;;;0.90;0.77;;;24.30;45.60;;;;;;6218108;28;20029;-68
2022/08/12 05:40:11;;;;;;;1.27;0.50;;;24.30;45.70;;;;;;6232045;28;20048;-68
2022/08/12 05:43:12;;;;;;;1.55;0.60;;;24.30;45.60;;;;;;6244251;28;20017;-68
2022/08/12 05:46:13;;;;;;;0.60;0.60;;;24.30;45.50;;;;;;6225174;28;20028;-68
2022/08/12 05:49:15;;;;;;;0.70;0.40;;;24.30;45.60;;;;;;6220526;28;20495;-68
2022/08/12 05:52:16;;;;;;;5.30;0.80;;;24.30;45.50;;;;;;6207290;28;20038;-68
2022/08/12 05:55:16;;;;;;;2.28;0.90;;;24.30;46.50;;;;;;6228516;28;20037;-67
2022/08/12 05:58:19;;;;;;;11.98;1.70;;;24.10;47.00;;;;;;6215750;28;20030;-67
2022/08/12 06:01:21;;;;;;;5.45;1.58;;;24.10;46.20;;;;;;6207882;28;21500;-68
2022/08/12 06:04:22;;;;;;;8.68;1.77;;;24.20;46.00;;;;;;6212237;28;20472;-68
2022/08/12 06:07:23;;;;;;;8.18;1.88;;;24.20;45.80;;;;;;6239171;28;20028;-68
2022/08/12 06:10:24;;;;;;;5.70;2.30;;;24.20;45.70;;;;;;6240074;28;20133;-68
2022/08/12 06:13:25;;;;;;;5.30;1.85;;;24.20;45.50;;;;;;6235305;28;20065;-66
2022/08/12 06:16:25;;;;;;;3.22;1.65;;;24.20;45.50;;;;;;6211483;28;20022;-67
2022/08/12 06:19:30;;;;;;;6.53;2.00;;;24.30;45.70;;;;;;6219633;28;20112;-68
2022/08/12 06:22:31;;;;;;;4.38;1.85;;;24.30;45.50;;;;;;6215650;28;20029;-67
2022/08/12 06:25:33;;;;;;;7.20;2.13;;;24.30;45.40;;;;;;6210855;28;20125;-68
2022/08/12 06:28:33;;;;;;;9.55;2.00;;;24.30;45.30;;;;;;6220114;28;20030;-67
2022/08/12 06:31:34;;;;;;;5.55;1.83;;;24.30;45.40;;;;;;6234192;28;20052;-67
2022/08/12 06:34:35;;;;;;;4.63;1.85;;;24.30;45.30;;;;;;6222404;28;20030;-67
2022/08/12 06:37:41;;;;;;;13.25;2.28;;;24.30;45.40;;;;;;6200643;28;20083;-67
2022/08/12 06:44:03;;;;;;;6.68;1.73;;;24.30;45.30;;;;;;6229088;28;20551;-68
2022/08/12 06:47:04;;;;;;;4.53;1.90;;;24.40;45.20;;;;;;6234420;28;20022;-68
2022/08/12 06:50:05;;;;;;;3.67;2.08;;;24.40;45.10;;;;;;6219083;28;20095;-68
2022/08/12 06:53:08;;;;;;;4.57;1.75;;;24.40;45.10;;;;;;6220250;28;20103;-68
2022/08/12 06:56:08;;;;;;;3.28;1.45;;;24.40;44.90;;;;;;6224812;28;20026;-68
2022/08/12 06:59:12;;;;;;;5.82;2.00;;;24.40;44.90;;;;;;6220294;28;20052;-68
2022/08/12 07:02:13;;;;;;;2.20;1.60;;;24.40;44.90;;;;;;6220525;28;20033;-68
2022/08/12 07:05:16;;;;;;;6.07;1.80;;;24.50;44.90;;;;;;6220732;28;20026;-68
2022/08/12 07:08:17;;;;;;;4.65;1.63;;;24.40;44.90;;;;;;6212369;28;20056;-67
2022/08/12 07:11:18;;;;;;;4.70;1.50;;;24.50;44.90;;;;;;6218754;28;20140;-68
2022/08/12 07:14:19;;;;;;;4.05;1.40;;;24.50;44.80;;;;;;6218806;28;20243;-68
2022/08/12 07:17:19;;;;;;;1.92;1.15;;;24.50;44.80;;;;;;6218235;28;20040;-68
2022/08/12 07:20:21;;;;;;;2.80;1.77;;;24.40;44.70;;;;;;6219689;28;20042;-68
2022/08/12 07:23:21;;;;;;;5.93;1.70;;;24.50;44.70;;;;;;6242875;28;20049;-67
2022/08/12 07:26:22;;;;;;;6.25;1.65;;;24.50;44.90;;;;;;6238751;28;20026;-68
2022/08/12 07:29:24;;;;;;;2.80;1.63;;;24.50;45.00;;;;;;6243745;28;20025;-67
2022/08/12 07:32:25;;;;;;;4.50;1.65;;;24.50;45.00;;;;;;6230854;28;20073;-68
2022/08/12 07:35:31;;;;;;;5.07;1.30;;;24.50;44.90;;;;;;6220869;28;20057;-68
2022/08/12 07:38:44;;;;;;;1.98;1.58;;;24.50;45.00;;;;;;6238018;28;20029;-67
2022/08/12 07:41:45;;;;;;;2.33;1.10;;;24.50;45.10;;;;;;6224684;28;20037;-66
2022/08/12 07:44:46;;;;;;;2.28;1.58;;;24.50;45.00;;;;;;6231440;28;20029;-67
2022/08/12 07:47:47;;;;;;;2.63;1.45;;;24.50;45.00;;;;;;6222544;28;20481;-67
2022/08/12 07:50:48;;;;;;;7.88;1.60;;;24.50;44.90;;;;;;6220813;28;20068;-67
2022/08/12 07:53:49;;;;;;;3.10;1.30;;;24.50;44.90;;;;;;6223689;28;20683;-66
2022/08/12 07:56:49;;;;;;;3.33;1.70;;;24.50;44.90;;;;;;6219390;28;20030;-67
2022/08/12 07:59:50;;;;;;;4.85;1.33;;;24.40;44.80;;;;;;6219910;28;20026;-67
2022/08/12 08:02:53;;;;;;;1.85;1.10;;;24.50;44.80;;;;;;6217272;28;20125;-67
2022/08/12 08:05:53;;;;;;;1.67;1.10;;;24.50;44.80;;;;;;6220397;28;20049;-67
2022/08/12 08:08:55;;;;;;;2.22;1.17;;;24.40;44.80;;;;;;6223917;28;20037;-67
2022/08/12 08:15:15;;;;;;;3.97;1.17;;;24.50;44.70;;;;;;6249403;28;20034;-67
2022/08/12 08:18:18;;;;;;;2.28;1.15;;;24.40;44.70;;;;;;6233181;28;20026;-67
2022/08/12 08:21:20;;;;;;;2.53;1.40;;;24.50;44.70;;;;;;6223456;28;20104;-67
2022/08/12 08:24:23;;;;;;;1.55;1.05;;;24.30;45.40;;;;;;6231197;28;20413;-67
2022/08/12 08:27:24;;;;;;;2.95;1.42;;;24.20;45.80;;;;;;6211705;28;20053;-67
2022/08/12 08:30:26;;;;;;;1.80;1.20;;;24.10;46.20;;;;;;6249112;28;20021;-67
2022/08/12 08:33:26;;;;;;;2.25;0.90;;;24.10;46.80;;;;;;6243057;28;20025;-66
2022/08/12 08:36:27;;;;;;;1.83;1.25;;;24.00;47.00;;;;;;6249651;28;20053;-68
2022/08/12 08:39:30;;;;;;;1.50;1.23;;;24.00;47.50;;;;;;6227017;28;20030;-66
2022/08/12 08:42:39;;;;;;;1.83;1.05;;;24.00;47.40;;;;;;6229974;28;20021;-67
2022/08/12 08:45:39;;;;;;;1.95;1.00;;;24.00;47.50;;;;;;6225154;28;20088;-67
2022/08/12 08:48:40;;;;;;;1.95;1.08;;;23.90;47.40;;;;;;6238773;28;20025;-67
2022/08/12 08:51:42;;;;;;;1.30;0.98;;;23.90;47.70;;;;;;6248464;28;20033;-67
2022/08/12 08:54:42;;;;;;;2.05;1.20;;;23.90;48.00;;;;;;6226229;28;20034;-67
2022/08/12 08:57:48;;;;;;;1.77;1.10;;;23.90;48.00;;;;;;6229771;28;20093;-67
2022/08/12 09:00:49;;;;;;;1.25;1.10;;;23.90;48.20;;;;;;6237475;28;20033;-67
2022/08/12 09:03:50;;;;;;;1.13;0.95;;;23.90;48.30;;;;;;6218314;28;20026;-67
2022/08/12 09:06:53;;;;;;;1.38;1.00;;;23.80;48.50;;;;;;6224095;28;20033;-67
2022/08/12 09:09:56;;;;;;;1.40;1.13;;;23.80;48.60;;;;;;6229516;28;20030;-68
2022/08/12 09:16:16;;;;;;;1.05;0.95;;;23.80;48.60;;;;;;6247828;28;20695;-67
2022/08/12 09:19:17;;;;;;;1.33;1.00;;;23.80;48.60;;;;;;6240494;28;20047;-67
2022/08/12 09:22:21;;;;;;;1.98;0.90;;;23.80;48.60;;;;;;6222616;28;20032;-68
2022/08/12 09:25:26;;;;;;;1.75;1.08;;;23.80;48.80;;;;;;6243539;28;20115;-67
2022/08/12 09:28:28;;;;;;;;;;;23.80;48.70;;;;;;6230912;28;20073;-67
2022/08/12 09:31:29;;;;;;;2.05;1.05;;;23.80;48.80;;;;;;6231228;28;20001;-67
2022/08/12 09:34:30;;;;;;;1.38;0.95;;;23.80;48.90;;;;;;6227271;28;20029;-67
2022/08/12 09:37:30;;;;;;;1.30;0.95;;;23.80;48.90;;;;;;6247287;28;20079;-67
2022/08/12 09:40:31;;;;;;;2.80;1.10;;;23.80;49.00;;;;;;6238043;28;20025;-67
2022/08/12 09:46:51;;;;;;;1.50;1.10;;;23.70;49.00;;;;;;6245098;28;20029;-67
2022/08/12 09:49:52;;;;;;;1.10;0.90;;;23.80;49.90;;;;;;6237852;28;20076;-67
2022/08/12 09:53:06;;;;;;;1.30;1.10;;;23.70;49.10;;;;;;6246811;28;20037;-67
2022/08/12 09:56:16;;;;;;;1.17;1.00;;;23.70;49.20;;;;;;6213880;28;20018;-67
2022/08/12 09:59:17;;;;;;;2.00;0.93;;;23.70;49.20;;;;;;6231625;28;20061;-67
2022/08/12 10:02:17;;;;;;;1.35;0.90;;;23.70;49.20;;;;;;6212105;28;20803;-67
2022/08/12 10:05:21;;;;;;;1.95;0.90;;;23.70;49.20;;;;;;6225878;28;20025;-67
2022/08/12 10:08:26;;;;;;;1.08;0.90;;;23.70;49.20;;;;;;6222321;28;20042;-67
2022/08/12 10:14:46;;;;;;;1.20;0.90;;;23.70;49.30;;;;;;6232896;28;20042;-67
2022/08/12 10:17:47;;;;;;;1.38;0.88;;;23.70;49.40;;;;;;6224939;28;20072;-66
2022/08/12 10:20:48;;;;;;;0.80;0.80;;;23.70;49.40;;;;;;6232099;28;20029;-67
2022/08/12 10:23:49;;;;;;;1.02;0.75;;;23.70;49.40;;;;;;6243833;28;20149;-67
2022/08/12 10:30:09;;;;;;;1.45;0.80;;;23.70;49.50;;;;;;6240104;28;20776;-67
2022/08/12 10:33:10;;;;;;;1.02;0.90;;;23.70;50.20;;;;;;6245429;28;20140;-67
2022/08/12 10:36:11;;;;;;;0.90;0.70;;;23.70;49.50;;;;;;6236623;28;20056;-66
2022/08/12 10:39:14;;;;;;;1.08;0.90;;;23.70;49.50;;;;;;6242278;28;20033;-67
2022/08/12 10:45:34;;;;;;;2.75;1.17;;;23.70;49.60;;;;;;6238029;28;20034;-67
2022/08/12 10:48:35;;;;;;;1.75;1.20;;;23.70;49.60;;;;;;6245094;28;20408;-68
2022/08/12 10:51:36;;;;;;;1.10;0.90;;;23.70;49.60;;;;;;6236067;28;20068;-67
2022/08/12 10:54:37;;;;;;;0.73;0.70;;;23.70;49.70;;;;;;6241431;28;20057;-67
2022/08/12 10:57:38;;;;;;;1.25;1.02;;;23.70;49.70;;;;;;6240866;28;20022;-67
2022/08/12 11:00:38;;;;;;;1.98;0.77;;;23.60;49.60;;;;;;6236719;28;20530;-67
2022/08/12 11:03:40;;;;;;;1.08;0.88;;;23.60;49.60;;;;;;6245544;28;20054;-68
2022/08/12 11:06:49;;;;;;;2.00;1.05;;;23.60;49.60;;;;;;6220910;28;20044;-68
2022/08/12 11:09:50;;;;;;;0.77;0.75;;;23.60;49.60;;;;;;6224770;28;20022;-68
2022/08/12 11:12:53;;;;;;;1.13;0.90;;;23.60;49.70;;;;;;6239104;28;20108;-67
2022/08/12 11:15:54;;;;;;;2.60;1.38;;;23.60;49.70;;;;;;6233321;28;20029;-67
2022/08/12 11:18:54;;;;;;;1.25;1.10;;;23.60;49.70;;;;;;6245053;28;20057;-67
2022/08/12 11:21:56;;;;;;;3.83;1.33;;;23.60;49.70;;;;;;6225750;28;20520;-67
2022/08/12 11:24:57;;;;;;;1.27;1.10;;;23.60;49.70;;;;;;6223946;28;20500;-67
2022/08/12 11:27:57;;;;;;;1.20;0.82;;;23.60;49.70;;;;;;6245135;28;20033;-67
2022/08/12 11:30:58;;;;;;;1.23;0.93;;;23.60;49.70;;;;;;6234965;28;20698;-67
2022/08/12 11:33:58;;;;;;;2.03;1.27;;;23.60;49.70;;;;;;6221099;28;20038;-67
2022/08/12 11:37:03;;;;;;;0.80;0.80;;;23.60;49.80;;;;;;6239439;28;20112;-67
2022/08/12 11:40:06;;;;;;;1.15;1.05;;;23.60;49.80;;;;;;6243648;28;20018;-67
2022/08/12 11:43:06;;;;;;;1.20;1.00;;;23.60;49.80;;;;;;6221123;28;20091;-67
2022/08/12 11:46:07;;;;;;;1.15;1.00;;;23.60;49.80;;;;;;6250748;28;20103;-67
2022/08/12 11:49:08;;;;;;;1.10;0.90;;;23.60;49.80;;;;;;6250594;28;20021;-67
2022/08/12 11:52:09;;;;;;;0.77;0.77;;;23.60;49.80;;;;;;6232846;28;20037;-67
2022/08/12 11:55:09;;;;;;;1.00;0.90;;;23.60;49.90;;;;;;6226322;28;20065;-67
2022/08/12 11:58:10;;;;;;;1.10;0.80;;;23.60;49.90;;;;;;6250441;28;20025;-67
2022/08/12 12:01:11;;;;;;;0.90;0.80;;;23.60;49.90;;;;;;6250150;28;20484;-67
2022/08/12 12:04:11;;;;;;;0.80;0.75;;;23.60;49.90;;;;;;6250078;28;20025;-68
2022/08/12 12:07:12;;;;;;;1.52;0.90;;;23.60;49.90;;;;;;6221404;28;20053;-66
2022/08/12 12:10:16;;;;;;;1.27;1.17;;;23.60;50.00;;;;;;6222215;28;20099;-67
2022/08/12 12:13:19;;;;;;;1.10;0.90;;;23.60;49.90;;;;;;6242909;28;20533;-66
2022/08/12 12:16:19;;;;;;;1.08;0.93;;;23.60;49.90;;;;;;6230169;28;20033;-67
2022/08/12 12:19:20;;;;;;;0.77;0.77;;;23.60;49.90;;;;;;6222528;28;20112;-67
2022/08/12 12:22:21;;;;;;;1.40;0.88;;;23.60;50.00;;;;;;6228770;28;20445;-67
2022/08/12 12:25:21;;;;;;;1.70;1.05;;;23.60;49.90;;;;;;6225379;28;20042;-68
2022/08/12 12:28:22;;;;;;;0.77;0.77;;;23.60;50.00;;;;;;6225285;28;20032;-68
2022/08/12 12:31:23;;;;;;;1.42;0.90;;;23.60;50.00;;;;;;6229215;28;20030;-67
2022/08/12 12:34:23;;;;;;;1.63;0.88;;;23.60;50.00;;;;;;6248409;28;20022;-68
2022/08/12 12:37:24;;;;;;;2.00;0.90;;;23.60;50.00;;;;;;6234324;28;20076;-67
2022/08/12 12:40:26;;;;;;;1.42;0.70;;;23.60;50.00;;;;;;6242160;28;20022;-67
2022/08/12 12:43:27;;;;;;;1.10;0.90;;;23.60;50.00;;;;;;6228491;28;20069;-67
2022/08/12 12:46:27;;;;;;;0.95;0.77;;;23.60;50.10;;;;;;6243791;28;20040;-67
2022/08/12 12:49:28;;;;;;;1.15;0.73;;;23.60;50.10;;;;;;6233015;28;20052;-67
2022/08/12 12:52:29;;;;;;;1.10;0.88;;;23.60;50.10;;;;;;6235184;28;20113;-67
2022/08/12 12:55:34;;;;;;;1.27;0.70;;;23.60;50.10;;;;;;6239131;28;20080;-67
2022/08/12 12:58:34;;;;;;;0.90;0.80;;;23.60;50.10;;;;;;6227951;28;20029;-67
2022/08/12 13:01:37;;;;;;;1.27;0.90;;;23.60;50.10;;;;;;6228142;28;20026;-67
2022/08/12 13:04:37;;;;;;;1.45;1.02;;;23.60;50.10;;;;;;6222679;28;20041;-66
2022/08/12 13:07:40;;;;;;;1.27;1.10;;;23.60;50.10;;;;;;6245961;28;20018;-67
2022/08/12 13:10:41;;;;;;;0.90;0.73;;;23.60;50.10;;;;;;6229557;28;20026;-67
2022/08/12 13:13:42;;;;;;;1.00;0.88;;;23.60;50.20;;;;;;6223116;28;20036;-67
2022/08/12 13:16:42;;;;;;;1.95;1.42;;;23.60;50.20;;;;;;6244813;28;20427;-66
2022/08/12 13:19:43;;;;;;;1.08;0.73;;;23.60;50.20;;;;;;6229076;28;20068;-67
2022/08/12 13:22:45;;;;;;;1.05;0.90;;;23.60;50.20;;;;;;6234381;28;20476;-66
2022/08/12 13:25:46;;;;;;;1.48;0.93;;;23.60;50.20;;;;;;6228893;28;20033;-67
2022/08/12 13:28:52;;;;;;;1.52;0.85;;;23.60;50.20;;;;;;6235020;28;20028;-67
2022/08/12 13:31:54;;;;;;;0.82;0.80;;;23.60;50.20;;;;;;6223620;28;20076;-67
2022/08/12 13:34:55;;;;;;;0.93;0.82;;;23.60;50.20;;;;;;6239740;28;20021;-66
2022/08/12 13:37:58;;;;;;;0.90;0.90;;;23.60;50.20;;;;;;6222076;28;20509;-67
2022/08/12 13:40:59;;;;;;;0.85;0.75;;;23.50;50.10;;;;;;6235658;28;20032;-67
2022/08/12 13:44:01;;;;;;;1.08;0.77;;;23.50;50.10;;;;;;6228647;28;20033;-67
2022/08/12 13:47:01;;;;;;;1.15;0.60;;;23.60;50.20;;;;;;6242198;28;20033;-67
2022/08/12 13:50:02;;;;;;;0.90;0.70;;;23.50;50.20;;;;;;6226828;28;20061;-67
2022/08/12 13:53:04;;;;;;;1.52;1.05;;;23.60;50.30;;;;;;6237754;28;20030;-67
2022/08/12 13:56:05;;;;;;;0.77;0.73;;;23.50;50.30;;;;;;6233062;28;20591;-67
2022/08/12 13:59:08;;;;;;;3.05;0.88;;;23.50;50.30;;;;;;6229819;28;20072;-67
2022/08/12 14:02:12;;;;;;;1.27;1.02;;;23.50;50.30;;;;;;6214180;28;20064;-67
2022/08/12 14:05:13;;;;;;;1.00;0.70;;;23.50;50.30;;;;;;6204857;28;20594;-67
2022/08/12 14:08:14;;;;;;;0.70;0.70;;;23.50;50.30;;;;;;6238210;28;20100;-67
2022/08/12 14:11:17;;;;;;;0.90;0.70;;;23.50;50.30;;;;;;6220875;28;20029;-67
2022/08/12 14:14:17;;;;;;;1.05;0.90;;;23.50;50.40;;;;;;6227830;28;20460;-67
2022/08/12 14:17:18;;;;;;;1.00;0.80;;;23.50;50.40;;;;;;6241391;28;20113;-66
2022/08/12 14:20:19;;;;;;;1.00;0.75;;;23.50;50.40;;;;;;6225492;28;20104;-67
2022/08/12 14:23:19;;;;;;;0.98;0.85;;;23.50;50.40;;;;;;6238767;28;20424;-67
2022/08/12 14:26:23;;;;;;;0.90;0.82;;;23.50;50.40;;;;;;6220378;28;20029;-67
2022/08/12 14:29:24;;;;;;;1.88;1.00;;;23.50;50.40;;;;;;6235728;28;20112;-67
2022/08/12 14:32:25;;;;;;;1.15;1.00;;;23.50;50.40;;;;;;6244320;28;20041;-67
2022/08/12 14:35:26;;;;;;;0.70;0.70;;;23.50;50.40;;;;;;6221218;28;20064;-66
2022/08/12 14:38:32;;;;;;;1.48;0.70;;;23.50;50.40;;;;;;6226414;28;20101;-67
2022/08/12 14:41:33;;;;;;;0.77;0.75;;;23.50;50.40;;;;;;6245561;28;20034;-66
2022/08/12 14:44:34;;;;;;;1.20;0.80;;;23.50;50.40;;;;;;6230230;28;20022;-66
2022/08/12 14:47:44;;;;;;;0.50;0.50;;;23.50;50.40;;;;;;6237064;28;20029;-67
2022/08/12 14:50:49;;;;;;;1.60;0.73;;;23.50;50.40;;;;;;6222718;28;20101;-66
2022/08/12 14:53:50;;;;;;;0.75;0.75;;;23.50;50.40;;;;;;6238048;28;20118;-67
2022/08/12 14:56:52;;;;;;;0.88;0.82;;;23.50;50.40;;;;;;6220211;28;20052;-66
2022/08/12 15:03:13;;;;;;;1.33;0.93;;;23.50;50.40;;;;;;6224994;28;20042;-67
2022/08/12 15:06:15;;;;;;;0.90;0.70;;;23.50;50.40;;;;;;6243875;28;20028;-67
2022/08/12 15:09:15;;;;;;;0.80;0.75;;;23.50;50.40;;;;;;6236499;28;20476;-67
2022/08/12 15:12:16;;;;;;;1.13;0.75;;;23.50;50.40;;;;;;6232034;28;20068;-66
2022/08/12 15:15:18;;;;;;;0.90;0.80;;;23.50;50.40;;;;;;6228328;28;20046;-66
2022/08/12 15:18:20;;;;;;;0.80;0.80;;;23.50;50.40;;;;;;6218710;28;20033;-67
2022/08/12 15:21:22;;;;;;;0.93;0.70;;;23.50;50.40;;;;;;6238252;28;20061;-66
2022/08/12 15:24:23;;;;;;;0.90;0.80;;;23.50;50.50;;;;;;6236332;28;20046;-67
2022/08/12 15:27:24;;;;;;;1.00;0.80;;;23.50;50.40;;;;;;6228116;28;20028;-67
2022/08/12 15:30:26;;;;;;;1.00;0.77;;;23.50;50.40;;;;;;6229744;28;20104;-67
2022/08/12 15:33:27;;;;;;;0.60;0.60;;;23.50;50.40;;;;;;6235528;28;20037;-67
2022/08/12 15:36:28;;;;;;;1.08;0.90;;;23.50;50.40;;;;;;6221180;28;20021;-67
2022/08/12 15:39:29;;;;;;;7.38;0.85;;;23.50;50.40;;;;;;6225157;28;20043;-67
2022/08/12 15:42:30;;;;;;;2.78;0.90;;;23.50;50.50;;;;;;6237477;28;20042;-67
2022/08/12 15:45:36;;;;;;;1.40;0.80;;;23.50;50.60;;;;;;6232908;28;20033;-67
2022/08/12 15:48:37;;;;;;;0.80;0.65;;;23.50;50.60;;;;;;6244241;28;20056;-67
2022/08/12 15:51:38;;;;;;;2.75;0.70;;;23.50;52.90;;;;;;6222191;28;20029;-65
2022/08/12 15:54:41;;;;;;;1.77;0.93;;;23.50;51.30;;;;;;6237105;28;20100;-66
2022/08/12 15:57:49;;;;;;;1.15;0.70;;;23.50;51.50;;;;;;6218442;28;20108;-66
2022/08/12 16:00:50;;;;;;;2.35;0.90;;;23.50;51.40;;;;;;6236590;28;20080;-66
2022/08/12 16:03:52;;;;;;;1.00;0.90;;;23.50;51.20;;;;;;6214231;28;20536;-66
2022/08/12 16:06:52;;;;;;;0.70;0.60;;;23.50;51.00;;;;;;6240304;28;20033;-65
2022/08/12 16:09:54;;;;;;;1.13;0.90;;;23.50;50.90;;;;;;6237521;28;20045;-65
2022/08/12 16:12:58;;;;;;;2.90;0.70;;;23.50;50.90;;;;;;6216708;28;20038;-65
2022/08/12 16:16:02;;;;;;;0.80;0.68;;;23.50;50.80;;;;;;6231052;28;20033;-66
2022/08/12 16:19:03;;;;;;;0.80;0.60;;;23.50;50.80;;;;;;6241064;28;20480;-65
2022/08/12 16:22:03;;;;;;;0.50;0.50;;;23.50;50.90;;;;;;6218678;28;20619;-65
2022/08/12 16:25:05;;;;;;;0.65;0.50;;;23.50;50.80;;;;;;6248920;28;20046;-65
2022/08/12 16:28:11;;;;;;;0.70;0.70;;;23.50;50.80;;;;;;6222456;28;20599;-66
2022/08/12 16:31:13;;;;;;;1.27;0.68;;;23.50;50.80;;;;;;6229827;28;20420;-66
2022/08/12 16:34:16;;;;;;;1.50;0.60;;;23.50;50.80;;;;;;6235014;28;20029;-66
2022/08/12 16:37:17;;;;;;;0.75;0.70;;;23.50;50.80;;;;;;6223721;28;20026;-65
2022/08/12 16:40:18;;;;;;;0.93;0.85;;;23.50;50.80;;;;;;6224198;28;20021;-65
2022/08/12 16:43:30;;;;;;;0.70;0.70;;;23.50;50.80;;;;;;6239153;28;20034;-65
2022/08/12 16:46:31;;;;;;;0.90;0.60;;;23.50;50.80;;;;;;6233124;28;20079;-66
2022/08/12 16:49:37;;;;;;;1.23;0.70;;;23.50;50.80;;;;;;6245275;28;20026;-65
2022/08/12 16:52:40;;;;;;;0.75;0.68;;;23.50;50.80;;;;;;6223767;28;20358;-66
2022/08/12 16:55:41;;;;;;;0.80;0.80;;;23.50;50.80;;;;;;6238427;28;20026;-65
2022/08/12 16:58:41;;;;;;;1.15;0.70;;;23.50;50.80;;;;;;6227392;28;20025;-65
2022/08/12 17:01:43;;;;;;;0.70;0.70;;;23.50;50.80;;;;;;6227274;28;20088;-65
2022/08/12 17:04:44;;;;;;;4.13;0.82;;;23.50;50.80;;;;;;6217359;28;20468;-66
2022/08/12 17:07:45;;;;;;;0.90;0.77;;;23.50;50.80;;;;;;6232857;28;20022;-66
2022/08/12 17:10:46;;;;;;;0.80;0.63;;;23.50;50.80;;;;;;6220654;28;20034;-65
2022/08/12 17:13:48;;;;;;;0.68;0.60;;;23.50;50.80;;;;;;6233181;28;20033;-65
2022/08/12 17:16:50;;;;;;;0.60;0.60;;;23.50;50.80;;;;;;6232116;28;20033;-66
2022/08/12 17:19:59;;;;;;;1.33;0.70;;;23.50;50.80;;;;;;6231708;28;20029;-66
2022/08/12 17:23:00;;;;;;;0.70;0.63;;;23.50;50.80;;;;;;6238884;28;20377;-65
2022/08/12 17:26:02;;;;;;;0.52;0.52;;;23.50;50.80;;;;;;6237889;28;20109;-65
2022/08/12 17:29:07;;;;;;;0.82;0.70;;;23.50;50.80;;;;;;6221489;28;20106;-65
2022/08/12 17:32:08;;;;;;;1.35;0.68;;;23.50;50.80;;;;;;6231523;28;20119;-66
2022/08/12 17:35:28;;;;;;;0.95;0.60;;;23.50;50.80;;;;;;6210953;28;20088;-66
2022/08/12 17:38:29;;;;;;;0.88;0.80;;;23.50;50.80;;;;;;6240226;28;20033;-65
2022/08/12 17:41:30;;;;;;;1.88;0.80;;;23.50;50.80;;;;;;6238155;28;20022;-65